Nearby METAR Reports

 

KIAD - Wash Dc/Dulles, Virginia, USA
Distance from station: ESE 7mi, 11km
Updated: Sun, 25-Oct-2020 5:52am EDT
Light rain, Overcast
Light rain, Overcast
 Wind from NNE
Wind: NNE 9 mph , 15 km/h
Temperature: 50°F , 10°C
Wind Chill: 46°F , 8°C
Dew Point: 37°F , 3°C
Humidity: 62%
Barometer: 30.14 inHg , 1020.7 hPa
Summary: Light rain
Clouds: Overcast
Visibility: 10 miles , 16 km
Cloud details: Mostly cloudy 4700 ft
Overcast 6500 ft
2020/10/25 09:52 KIAD 250952Z 02008KT 10SM -RA BKN047 OVC065 10/03 A3014 RMK AO2 RAB24 SLP207 P0000 T01000033
KJYO - Leesburg/Godfrey, Virginia, USA
Distance from station: N 7mi, 12km
Updated: Sun, 25-Oct-2020 6:15am EDT
Overcast
Overcast
 Wind from NE
Wind: NE 6 mph , 9 km/h, Gust: 16 mph , 26 km/h
Temperature: 48°F , 9°C
Wind Chill: 45°F , 7°C
Dew Point: 37°F , 3°C
Humidity: 66%
Barometer: 30.17 inHg , 1021.7 hPa
Clouds: Overcast
Visibility: 10 miles , 16 km
Cloud details: Overcast 4100 ft
2020/10/25 10:15 KJYO 251015Z AUTO 04005G14KT 10SM OVC041 09/03 A3017 RMK AO2
KHEF - Manassas Muni, Virginia, USA
Distance from station: S 17mi, 28km
Updated: Sun, 25-Oct-2020 5:56am EDT
Rain, Overcast
Rain, Overcast
 Wind from NE
Wind: NE 5 mph , 7 km/h
Temperature: 46°F , 8°C
Wind Chill: 44°F , 7°C
Dew Point: 45°F , 7°C
Humidity: 93%
Barometer: 30.16 inHg , 1021.3 hPa
Summary: Rain
Clouds: Overcast
Visibility: 8 miles , 13 km
Cloud details: Overcast 4000 ft
2020/10/25 09:56 KHEF 250956Z AUTO 05004KT 8SM RA OVC040 08/07 A3016 RMK AO2 SLP219 T00830072 PNO $
 
KGAI - Gaithersburg, Maryland, USA
Distance from station: NE 26mi, 41km
Updated: Sun, 25-Oct-2020 5:56am EDT
Overcast
Overcast
 Wind from varies
Wind: varies 3 mph , 6 km/h
Temperature: 48°F , 9°C
Dew Point: 37°F , 3°C
Humidity: 66%
Barometer: 30.16 inHg , 1021.3 hPa
Clouds: Overcast
Visibility: 10 miles , 16 km
Cloud details: Overcast 4200 ft
2020/10/25 09:56 KGAI 250956Z AUTO VRB03KT 10SM OVC042 09/03 A3016 RMK AO2 SLP227 T00940028
KDAA - Fort Belvoir/Dav, Virginia, USA
Distance from station: SE 27mi, 44km
Updated: Sun, 25-Oct-2020 5:56am EDT
Rain, Mist, Overcast
Rain, Mist, Overcast
 Wind from NNW
Wind: NNW 3 mph , 6 km/h
Temperature: 48°F , 9°C
Dew Point: 45°F , 7°C
Humidity: 87%
Barometer: 30.15 inHg , 1021 hPa
Summary: Rain, Mist
Clouds: Overcast
Visibility: 6 miles , 10 km
Cloud details: Overcast 2800 ft
2020/10/25 09:56 KDAA 250956Z AUTO 34003KT 6SM RA BR OVC028 09/07 A3015 RMK AO2 RAB17 SLP213 P0014 T00900071 $
KHWY - Warrenton, Virginia, USA
Distance from station: SSW 27mi, 44km
Updated: Sun, 25-Oct-2020 6:15am EDT
Light rain, Overcast
Light rain, Overcast
 Wind from NNE
Wind: NNE 6 mph , 9 km/h
Temperature: 48°F , 9°C
Wind Chill: 45°F , 7°C
Dew Point: 45°F , 7°C
Humidity: 87%
Barometer: 30.15 inHg , 1021 hPa
Summary: Light rain
Clouds: Overcast
Visibility: 10 miles , 16 km
Cloud details: Partly cloudy 3400 ft
Mostly cloudy 4800 ft
Overcast 9000 ft
2020/10/25 10:15 KHWY 251015Z AUTO 03005KT 10SM -RA SCT034 BKN048 OVC090 09/07 A3015 RMK AO2 P0003 T00860069
 
KDCA - Washington/Natl, Washington D.c., USA
Distance from station: ESE 30mi, 48km
Updated: Sun, 25-Oct-2020 5:52am EDT
Rain, Overcast
Rain, Overcast
 Wind from NNE
Wind: NNE 14 mph , 22 km/h
Temperature: 48°F , 9°C
Wind Chill: 42°F , 6°C
Dew Point: 43°F , 6°C
Humidity: 82%
Barometer: 30.16 inHg , 1021.3 hPa
Summary: Rain
Clouds: Overcast
Visibility: 6 miles , 10 km
Cloud details: Overcast 4500 ft
2020/10/25 09:52 KDCA 250952Z 03012KT 6SM RA OVC045 09/06 A3016 RMK AO2 SLP211 P0009 T00940061
KFDK - Frederick, Maryland, USA
Distance from station: NNE 33mi, 53km
Updated: Sun, 25-Oct-2020 6:15am EDT
Haze, Overcast
Haze, Overcast
 Wind from NNE
Wind: NNE 9 mph , 15 km/h
Temperature: 48°F , 9°C
Wind Chill: 44°F , 7°C
Dew Point: 37°F , 3°C
Humidity: 66%
Barometer: 30.18 inHg , 1022 hPa
Summary: Haze
Clouds: Overcast
Visibility: 5 miles , 8 km
Cloud details: Overcast 4700 ft
2020/10/25 10:15 KFDK 251015Z AUTO 02008KT 5SM HZ OVC047 09/03 A3018 RMK AO2
KOKV - Winchester Rgnl, Virginia, USA
Distance from station: WNW 33mi, 54km
Updated: Sun, 25-Oct-2020 6:15am EDT
Overcast
Overcast
 Wind from calm
Wind: Calm
Temperature: 46°F , 8°C
Dew Point: 36°F , 2°C
Humidity: 66%
Barometer: 30.14 inHg , 1020.7 hPa
Clouds: Overcast
Visibility: 10 miles , 16 km
Cloud details: Overcast 3400 ft
2020/10/25 10:15 KOKV 251015Z AUTO 00000KT 10SM OVC034 08/02 A3014 RMK AO2
 
KCJR - Culpeper, Virginia, USA
Distance from station: SSW 34mi, 54km
Updated: Sun, 25-Oct-2020 6:15am EDT
Light rain, Overcast
Light rain, Overcast
 Wind from calm
Wind: Calm
Temperature: 48°F , 9°C
Dew Point: 46°F , 8°C
Humidity: 94%
Barometer: 30.17 inHg , 1021.7 hPa
Summary: Light rain
Clouds: Overcast
Visibility: 10 miles , 16 km
Cloud details: Overcast 3400 ft
2020/10/25 10:15 KCJR 251015Z AUTO 00000KT 10SM -RA OVC034 09/08 A3017 RMK AO2 P0001 T00880080
KCGS - College Park, Maryland, USA
Distance from station: E 35mi, 56km
Updated: Sun, 25-Oct-2020 6:15am EDT
Overcast
Overcast
 Wind from calm
Wind: Calm
Temperature: 46°F , 8°C
Dew Point: 41°F , 5°C
Humidity: 82%
Barometer: 30.16 inHg , 1021.3 hPa
Clouds: Overcast
Visibility: 7 miles , 11 km
Cloud details: Mostly cloudy 4400 ft
Overcast 5000 ft
2020/10/25 10:15 KCGS 251015Z AUTO 00000KT 7SM BKN044 OVC050 08/05 A3016 RMK AO1 T00770054
KNYG - Quantico Mcaf, Virginia, USA
Distance from station: SSE 35mi, 57km
Updated: Sun, 25-Oct-2020 6:23am EDT
Heavy rain, Mist, Overcast
Heavy rain, Mist, Overcast
 Wind from N
Wind: N 12 mph , 19 km/h
Temperature: 48°F , 9°C
Wind Chill: 43°F , 6°C
Dew Point: 46°F , 8°C
Humidity: 94%
Barometer: 30.17 inHg , 1021.7 hPa
Summary: Heavy rain, Mist
Clouds: Overcast
Visibility: 2 1/2 miles , 4 km
Cloud details: Mostly cloudy 1600 ft
Mostly cloudy 3600 ft
Overcast 5000 ft
2020/10/25 10:23 KNYG 251023Z AUTO 36010KT 2 1/2SM +RA BR BKN016 BKN036 OVC050 09/08 A3017 RMK AO2 P0011 T00890078 $
 
KFRR - Fort Royal, Virginia, USA
Distance from station: W 37mi, 59km
Updated: Sun, 25-Oct-2020 6:15am EDT
Overcast
Overcast
 Wind from NNE
Wind: NNE 6 mph , 9 km/h
Temperature: 48°F , 9°C
Wind Chill: 45°F , 7°C
Dew Point: 39°F , 4°C
Humidity: 71%
Barometer: 30.15 inHg , 1021 hPa
Clouds: Overcast
Visibility: 10 miles , 16 km
Cloud details: Overcast 3200 ft
2020/10/25 10:15 KFRR 251015Z AUTO 03005KT 10SM OVC032 09/04 A3015 RMK AO1
KMRB - Martinsburg, West Virginia, USA
Distance from station: NW 38mi, 61km
Updated: Sun, 25-Oct-2020 5:53am EDT
Overcast
Overcast
 Wind from NNE
Wind: NNE 7 mph , 11 km/h
Temperature: 48°F , 9°C
Wind Chill: 45°F , 7°C
Dew Point: 36°F , 2°C
Humidity: 62%
Barometer: 30.16 inHg , 1021.3 hPa
Clouds: Overcast
Visibility: 10 miles , 16 km
Cloud details: Overcast 4600 ft
2020/10/25 09:53 KMRB 250953Z AUTO 03006KT 10SM OVC046 09/02 A3016 RMK AO2 SLP214 T00890022
KADW - Andrews Afb, Maryland, USA
Distance from station: ESE 39mi, 63km
Updated: Sun, 25-Oct-2020 5:56am EDT
Light rain, Overcast
Light rain, Overcast
 Wind from N
Wind: N 9 mph , 15 km/h
Temperature: 46°F , 8°C
Wind Chill: 41°F , 5°C
Dew Point: 43°F , 6°C
Humidity: 87%
Barometer: 30.13 inHg , 1020.3 hPa
Summary: Light rain
Clouds: Overcast
Visibility: 10 miles , 16 km
Cloud details: Overcast 4700 ft
2020/10/25 09:56 KADW 250956Z AUTO 01008KT 10SM -RA OVC047 08/06 A3013 RMK AO2 DZB0859E05RAB05 SLP210 P0007 T00800063 FZRANO $
 
KRMN - Stafford Regnl, Virginia, USA
Distance from station: S 39mi, 63km
Updated: Sun, 25-Oct-2020 6:15am EDT
Rain, Overcast
Rain, Overcast
 Wind from N
Wind: N 5 mph , 7 km/h
Temperature: 50°F , 10°C
Wind Chill: 48°F , 9°C
Dew Point: 46°F , 8°C
Humidity: 88%
Barometer: 30.19 inHg , 1022.4 hPa
Summary: Rain
Clouds: Overcast
Visibility: 10 miles , 16 km
Cloud details: Partly cloudy 1000 ft
Mostly cloudy 4900 ft
Overcast 10000 ft
2020/10/25 10:15 KRMN 251015Z AUTO 35004KT 10SM RA SCT010 BKN049 OVC100 10/08 A3019 RMK AO2 P0002 T00950083
KFME - Fort Meade, Maryland, USA
Distance from station: ENE 44mi, 70km
Updated: Sun, 25-Oct-2020 6:15am EDT
Overcast
Overcast
 Wind from ENE
Wind: ENE 3 mph , 6 km/h
Temperature: 46°F , 8°C
Dew Point: 43°F , 6°C
Humidity: 87%
Barometer: 30.19 inHg , 1022.4 hPa
Clouds: Overcast
Visibility: 10 miles , 16 km
Cloud details: Partly cloudy 4600 ft
Overcast 5500 ft
2020/10/25 10:15 KFME 251015Z AUTO 06003KT 10SM SCT046 OVC055 08/06 A3019 RMK AO1
KRSP - Nsf Thurmont, Maryland, USA
Distance from station: N 48mi, 77km
Updated: Sun, 25-Oct-2020 5:54am EDT
Overcast
Overcast
 Wind from varies
Wind: varies 3 mph , 6 km/h
Temperature: 39°F , 4°C
Dew Point: 32°F , 0°C
Humidity: 75%
Barometer: 30.13 inHg , 1020.3 hPa
Clouds: Overcast
Visibility: 10 miles , 16 km
Cloud details: Overcast 3700 ft
2020/10/25 09:54 KRSP 250954Z AUTO VRB03KT 10SM OVC037 04/00 A3013 RMK AO2 SLP213 T00440000 $
 
KEZF - Fredericksb/Shan, Virginia, USA
Distance from station: S 48mi, 78km
Updated: Sun, 25-Oct-2020 6:15am EDT
Rain, Overcast
Rain, Overcast
 Wind from N
Wind: N 5 mph , 7 km/h
Temperature: 50°F , 10°C
Wind Chill: 48°F , 9°C
Dew Point: 50°F , 10°C
Humidity: 100%
Barometer: 30.14 inHg , 1020.7 hPa
Summary: Rain
Clouds: Overcast
Visibility: 10 miles , 16 km
Cloud details: Mostly cloudy 800 ft
Overcast 1400 ft
2020/10/25 10:15 KEZF 251015Z AUTO 35004KT 10SM RA BKN008 OVC014 10/10 A3014 RMK AO2 P0002 T00970097
KBWI - Balto/Wash Intl, Maryland, USA
Distance from station: ENE 49mi, 80km
Updated: Sun, 25-Oct-2020 5:54am EDT
Light rain, Overcast
Light rain, Overcast
 Wind from NE
Wind: NE 8 mph , 13 km/h
Temperature: 50°F , 10°C
Wind Chill: 47°F , 8°C
Dew Point: 39°F , 4°C
Humidity: 67%
Barometer: 30.16 inHg , 1021.3 hPa
Summary: Light rain
Clouds: Overcast
Visibility: 10 miles , 16 km
Cloud details: Overcast 4600 ft
2020/10/25 09:54 KBWI 250954Z 05007KT 10SM -RA OVC046 10/04 A3016 RMK AO2 RAB02E17B46 SLP211 P0000 T01000039